createdAt,value
2018-07-24T00:02:11.149Z,12.58
2018-07-24T00:04:39.763Z,12.60
2018-07-24T00:07:09.231Z,12.80
2018-07-24T00:09:37.837Z,12.63
2018-07-24T00:12:06.388Z,12.77
2018-07-24T00:14:34.990Z,12.30
2018-07-24T00:17:03.646Z,13.17
2018-07-24T00:19:32.262Z,12.97
2018-07-24T00:22:00.862Z,14.40
2018-07-24T00:24:29.446Z,13.43
2018-07-24T00:26:58.142Z,14.73
2018-07-24T00:29:26.680Z,14.60
2018-07-24T00:31:55.328Z,14.07
2018-07-24T00:34:23.941Z,14.67
2018-07-24T00:36:52.482Z,14.30
2018-07-24T00:39:21.120Z,13.93
2018-07-24T00:41:49.739Z,15.70
2018-07-24T00:44:18.355Z,14.00
2018-07-24T00:46:46.972Z,14.77
2018-07-24T00:49:15.582Z,14.43
2018-07-24T00:51:44.186Z,13.67
2018-07-24T00:54:12.815Z,15.27
2018-07-24T00:56:41.365Z,16.53
2018-07-24T00:59:10.038Z,15.13
2018-07-24T01:01:38.628Z,14.97
2018-07-24T01:04:07.225Z,14.93
2018-07-24T01:06:35.840Z,16.57
2018-07-24T01:09:06.518Z,15.83
2018-07-24T01:11:35.278Z,16.07
2018-07-24T01:14:03.951Z,16.03
2018-07-24T01:16:32.556Z,15.93
2018-07-24T01:19:01.151Z,15.10
2018-07-24T01:21:29.748Z,15.17
2018-07-24T01:23:58.322Z,16.60
2018-07-24T01:26:26.922Z,16.30
2018-07-24T01:28:55.500Z,15.97
2018-07-24T01:31:24.062Z,15.47
2018-07-24T01:33:52.626Z,15.70
2018-07-24T01:36:21.218Z,16.33
2018-07-24T01:38:49.794Z,15.90
2018-07-24T01:41:18.370Z,16.13
2018-07-24T01:43:46.947Z,16.27
2018-07-24T01:46:15.539Z,15.87
2018-07-24T01:48:44.090Z,15.43
2018-07-24T01:51:12.713Z,16.13
2018-07-24T01:53:41.348Z,16.30
2018-07-24T01:56:09.978Z,15.87
2018-07-24T01:58:38.546Z,15.80
2018-07-24T02:01:07.225Z,16.00
2018-07-24T02:03:36.374Z,16.10
2018-07-24T02:06:05.110Z,15.80
2018-07-24T02:08:33.878Z,16.43
2018-07-24T02:11:02.455Z,16.27
2018-07-24T02:13:31.071Z,17.57
2018-07-24T02:15:59.681Z,16.77
2018-07-24T02:18:28.390Z,17.07
2018-07-24T02:20:56.956Z,16.63
2018-07-24T02:23:25.547Z,16.93
2018-07-24T02:25:54.134Z,18.47
2018-07-24T02:28:22.714Z,16.80
2018-07-24T02:30:51.298Z,16.70
2018-07-24T02:33:20.023Z,17.37
2018-07-24T02:35:48.578Z,17.07
2018-07-24T02:38:17.148Z,16.87
2018-07-24T02:40:45.731Z,15.47
2018-07-24T02:43:14.358Z,16.77
2018-07-24T02:45:42.952Z,18.53
2018-07-24T02:48:11.512Z,17.43
2018-07-24T02:50:40.082Z,16.23
2018-07-24T02:53:08.659Z,17.07
2018-07-24T02:55:37.251Z,18.03
2018-07-24T02:58:05.818Z,19.13
2018-07-24T03:00:34.407Z,17.70
2018-07-24T03:03:03.010Z,17.10
2018-07-24T03:05:31.557Z,18.83
2018-07-24T03:08:00.159Z,21.17
2018-07-24T03:10:28.746Z,20.93
2018-07-24T03:12:57.328Z,20.07
2018-07-24T03:15:25.994Z,20.70
2018-07-24T03:17:54.661Z,20.37
2018-07-24T03:20:23.211Z,19.90
2018-07-24T03:22:51.778Z,20.03
2018-07-24T03:25:20.378Z,20.77
2018-07-24T03:27:48.962Z,19.27
2018-07-24T03:30:17.594Z,21.83
2018-07-24T03:32:46.226Z,20.07
2018-07-24T03:35:14.867Z,21.37
2018-07-24T03:37:43.506Z,19.97
2018-07-24T03:40:12.143Z,20.73
2018-07-24T03:42:40.732Z,23.83
2018-07-24T03:45:09.365Z,22.70
2018-07-24T03:47:37.931Z,25.50
2018-07-24T03:50:06.552Z,23.00
2018-07-24T03:52:35.259Z,24.13
2018-07-24T03:55:03.934Z,26.70
2018-07-24T03:57:32.534Z,25.03
2018-07-24T04:00:01.090Z,26.00
2018-07-24T04:02:29.672Z,26.50
2018-07-24T04:04:58.272Z,25.93
2018-07-24T04:07:26.897Z,25.43
2018-07-24T04:09:55.450Z,26.73
2018-07-24T04:12:24.159Z,25.63
2018-07-24T04:14:52.723Z,25.00
2018-07-24T04:17:21.321Z,24.27
2018-07-24T04:19:49.879Z,25.17
2018-07-24T04:22:18.444Z,27.53
2018-07-24T04:24:47.100Z,27.50
2018-07-24T04:27:15.671Z,27.47
2018-07-24T04:29:44.235Z,27.60
2018-07-24T04:32:12.836Z,30.57
2018-07-24T04:34:41.405Z,23.97
2018-07-24T04:37:09.990Z,23.77
2018-07-24T04:39:38.649Z,25.20
2018-07-24T04:42:07.226Z,24.47
2018-07-24T04:44:35.827Z,24.03
2018-07-24T04:47:04.402Z,24.60
2018-07-24T04:49:32.979Z,24.37
2018-07-24T04:52:01.507Z,23.73
2018-07-24T04:54:30.097Z,23.33
2018-07-24T04:56:58.634Z,24.67
2018-07-24T04:59:27.243Z,23.77
2018-07-24T05:01:55.811Z,22.70
2018-07-24T05:04:24.504Z,23.70
2018-07-24T05:06:53.054Z,23.83
2018-07-24T05:09:21.658Z,23.80
2018-07-24T05:11:50.227Z,22.83
2018-07-24T05:14:18.886Z,23.37
2018-07-24T05:16:47.498Z,22.73
2018-07-24T05:19:16.024Z,22.07
2018-07-24T05:21:44.640Z,24.27
2018-07-24T05:24:13.254Z,23.30
2018-07-24T05:26:41.840Z,21.30
2018-07-24T05:29:10.511Z,21.52
2018-07-24T05:31:39.196Z,20.32
2018-07-24T05:34:07.863Z,20.02
2018-07-24T05:36:36.530Z,20.15
2018-07-24T05:39:07.911Z,18.42
2018-07-24T05:41:36.662Z,20.30
2018-07-24T05:44:05.262Z,20.62
2018-07-24T05:46:33.842Z,20.10
2018-07-24T05:49:02.486Z,20.55
2018-07-24T05:51:31.158Z,19.23
2018-07-24T05:53:59.835Z,21.42
2018-07-24T05:56:28.466Z,20.23
2018-07-24T05:58:57.150Z,19.92
2018-07-24T06:01:25.793Z,20.90
2018-07-24T06:03:54.481Z,19.87
2018-07-24T06:06:23.073Z,19.23
2018-07-24T06:08:51.742Z,19.23
2018-07-24T06:11:20.330Z,19.45
2018-07-24T06:13:49.018Z,19.60
2018-07-24T06:16:17.617Z,18.65
2018-07-24T06:18:46.251Z,19.55
2018-07-24T06:21:14.869Z,18.60
2018-07-24T06:23:43.590Z,20.15
2018-07-24T06:26:12.136Z,22.32
2018-07-24T06:28:40.783Z,20.80
2018-07-24T06:31:09.400Z,18.82
2018-07-24T06:33:38.024Z,17.77
2018-07-24T06:36:06.806Z,19.52
2018-07-24T06:38:35.489Z,18.32
2018-07-24T06:41:04.097Z,17.52
2018-07-24T06:43:32.752Z,17.12
2018-07-24T06:46:01.467Z,17.70
2018-07-24T06:48:30.059Z,16.23
2018-07-24T06:50:58.686Z,17.57
2018-07-24T06:53:27.340Z,16.57
2018-07-24T06:55:56.050Z,15.80
2018-07-24T06:58:24.620Z,15.32
2018-07-24T07:00:53.214Z,12.90
2018-07-24T07:03:21.878Z,13.03
2018-07-24T07:05:50.420Z,17.80
2018-07-24T07:08:19.016Z,12.40
2018-07-24T07:10:47.722Z,12.43
2018-07-24T07:13:18.238Z,13.00
2018-07-24T07:15:46.910Z,12.10
2018-07-24T07:18:15.603Z,11.25
2018-07-24T07:20:44.334Z,11.00
2018-07-24T07:23:13.004Z,10.28
2018-07-24T07:25:42.898Z,10.00
2018-07-24T07:28:11.554Z,9.80
2018-07-24T07:30:40.125Z,10.05
2018-07-24T07:33:08.865Z,10.05
2018-07-24T07:35:37.499Z,10.98
2018-07-24T07:38:06.348Z,11.38
2018-07-24T07:40:35.192Z,10.98
2018-07-24T07:43:03.797Z,10.45
2018-07-24T07:45:32.451Z,9.95
2018-07-24T07:48:01.041Z,9.40
2018-07-24T07:50:29.632Z,9.53
2018-07-24T07:52:58.259Z,10.05
2018-07-24T07:55:26.966Z,9.55
2018-07-24T07:57:55.628Z,10.38
2018-07-24T08:00:24.371Z,10.13
2018-07-24T08:02:53.545Z,10.10
2018-07-24T08:05:22.165Z,9.68
2018-07-24T08:07:50.899Z,10.35
2018-07-24T08:10:19.531Z,9.70
2018-07-24T08:12:48.186Z,9.78
2018-07-24T08:15:16.797Z,9.33
2018-07-24T08:17:45.486Z,9.95
2018-07-24T08:20:14.137Z,10.05
2018-07-24T08:22:42.765Z,10.18
2018-07-24T08:25:11.430Z,9.25
2018-07-24T08:27:40.100Z,8.98
2018-07-24T08:30:08.858Z,9.45
2018-07-24T08:32:37.540Z,9.10
2018-07-24T08:35:06.276Z,8.75
2018-07-24T08:37:35.000Z,9.70
2018-07-24T08:40:03.693Z,8.80
2018-07-24T08:42:32.322Z,9.00
2018-07-24T08:45:00.928Z,8.43
2018-07-24T08:47:29.545Z,8.95
2018-07-24T08:49:58.205Z,9.90
2018-07-24T08:52:27.006Z,9.05
2018-07-24T08:54:55.883Z,8.85
2018-07-24T08:57:24.470Z,8.40
2018-07-24T08:59:53.143Z,9.08
2018-07-24T09:02:21.782Z,8.73
2018-07-24T09:04:50.452Z,8.53
2018-07-24T09:07:19.157Z,9.00
2018-07-24T09:09:47.813Z,8.68
2018-07-24T09:12:16.596Z,9.50
2018-07-24T09:14:45.191Z,9.13
2018-07-24T09:17:13.832Z,8.40
2018-07-24T09:19:42.463Z,8.65
2018-07-24T09:22:11.082Z,9.33
2018-07-24T09:24:39.784Z,9.48
2018-07-24T09:27:08.426Z,9.13
2018-07-24T09:29:37.271Z,9.20
2018-07-24T09:32:05.900Z,8.20
2018-07-24T09:34:34.568Z,8.60
2018-07-24T09:37:03.218Z,8.93
2018-07-24T09:39:31.874Z,9.65
2018-07-24T09:42:00.517Z,9.15
2018-07-24T09:44:29.099Z,8.73
2018-07-24T09:46:57.687Z,8.80
2018-07-24T09:49:26.305Z,9.15
2018-07-24T09:51:54.941Z,8.83
2018-07-24T09:54:24.169Z,8.38
2018-07-24T09:56:52.815Z,8.15
2018-07-24T09:59:21.494Z,8.48
2018-07-24T10:01:50.119Z,9.03
2018-07-24T10:04:18.872Z,8.88
2018-07-24T10:06:47.563Z,7.75
2018-07-24T10:09:16.245Z,8.70
2018-07-24T10:11:44.822Z,8.58
2018-07-24T10:14:13.403Z,8.70
2018-07-24T10:16:42.171Z,8.13
2018-07-24T10:19:10.741Z,9.18
2018-07-24T10:21:39.440Z,7.87
2018-07-24T10:24:08.124Z,8.65
2018-07-24T10:26:36.795Z,8.38
2018-07-24T10:29:05.477Z,7.92
2018-07-24T10:31:34.919Z,8.35
2018-07-24T10:34:03.533Z,8.98
2018-07-24T10:36:32.324Z,9.68
2018-07-24T10:39:00.947Z,8.68
2018-07-24T10:41:29.608Z,7.78
2018-07-24T10:43:58.218Z,8.28
2018-07-24T10:46:26.887Z,8.75
2018-07-24T10:48:55.577Z,9.60
2018-07-24T10:51:30.789Z,9.38
2018-07-24T10:53:59.473Z,8.10
2018-07-24T10:56:28.181Z,9.40
2018-07-24T10:58:57.342Z,9.10
2018-07-24T11:01:26.324Z,8.53
2018-07-24T11:03:55.337Z,8.60
2018-07-24T11:06:24.017Z,8.60
2018-07-24T11:08:52.710Z,8.43
2018-07-24T11:11:21.368Z,8.73
2018-07-24T11:13:50.051Z,8.35
2018-07-24T11:16:18.644Z,8.43
2018-07-24T11:18:47.309Z,10.05
2018-07-24T11:21:16.008Z,8.38
2018-07-24T11:23:44.714Z,8.93
2018-07-24T11:26:13.390Z,9.33
2018-07-24T11:28:42.071Z,8.18
2018-07-24T11:31:10.799Z,7.90
2018-07-24T11:33:39.492Z,7.85
2018-07-24T11:36:08.334Z,7.72
2018-07-24T11:38:37.031Z,8.60
2018-07-24T11:41:05.685Z,7.90
2018-07-24T11:43:34.416Z,7.92
2018-07-24T11:46:03.055Z,8.13
2018-07-24T11:48:31.692Z,8.80
2018-07-24T11:51:00.303Z,8.45
2018-07-24T11:53:28.936Z,7.62
2018-07-24T11:55:57.509Z,8.58
2018-07-24T11:58:26.113Z,7.95
2018-07-24T12:00:54.752Z,8.95
2018-07-24T12:03:23.380Z,7.95
2018-07-24T12:05:51.999Z,7.87
2018-07-24T12:08:20.624Z,8.30
2018-07-24T12:11:05.527Z,7.58
2018-07-24T12:13:34.142Z,7.28
2018-07-24T12:16:02.727Z,7.75
2018-07-24T12:18:31.350Z,8.08
2018-07-24T12:20:59.991Z,6.80
2018-07-24T12:23:28.565Z,7.12
2018-07-24T12:25:57.154Z,7.10
2018-07-24T12:28:26.008Z,7.05
2018-07-24T12:30:54.580Z,7.15
2018-07-24T12:33:23.159Z,7.20
2018-07-24T12:35:51.834Z,7.40
2018-07-24T12:38:20.471Z,7.25
2018-07-24T12:40:49.089Z,7.40
2018-07-24T12:43:17.711Z,7.53
2018-07-24T12:45:46.273Z,6.70
2018-07-24T12:48:14.971Z,7.00
2018-07-24T12:50:43.674Z,7.25
2018-07-24T12:53:12.287Z,7.10
2018-07-24T12:55:40.959Z,6.97
2018-07-24T12:58:09.601Z,7.58
2018-07-24T13:00:38.252Z,7.35
2018-07-24T13:03:06.868Z,7.37
2018-07-24T13:05:35.467Z,7.40
2018-07-24T13:08:04.111Z,7.33
2018-07-24T13:10:32.760Z,7.22
2018-07-24T13:13:01.365Z,7.10
2018-07-24T13:15:29.967Z,7.30
2018-07-24T13:17:58.692Z,7.03
2018-07-24T13:20:27.300Z,7.15
2018-07-24T13:22:55.906Z,7.42
2018-07-24T13:25:24.502Z,6.40
2018-07-24T13:27:53.221Z,6.55
2018-07-24T13:30:21.879Z,6.78
2018-07-24T13:32:50.534Z,7.15
2018-07-24T13:35:19.181Z,6.83
2018-07-24T13:37:47.861Z,6.53
2018-07-24T13:40:16.543Z,6.58
2018-07-24T13:42:45.283Z,6.80
2018-07-24T13:45:13.967Z,6.05
2018-07-24T13:47:42.587Z,6.20
2018-07-24T13:50:11.225Z,6.80
2018-07-24T13:52:39.838Z,6.35
2018-07-24T13:55:08.461Z,6.22
2018-07-24T13:57:37.103Z,6.70
2018-07-24T14:00:06.348Z,6.47
2018-07-24T14:02:35.071Z,6.70
2018-07-24T14:05:03.765Z,6.15
2018-07-24T14:07:32.356Z,6.33
2018-07-24T14:10:01.104Z,6.53
2018-07-24T14:12:29.828Z,6.53
2018-07-24T14:14:58.520Z,6.15
2018-07-24T14:17:27.113Z,6.25
2018-07-24T14:19:55.796Z,6.47
2018-07-24T14:22:24.425Z,6.15
2018-07-24T14:24:53.035Z,5.87
2018-07-24T14:27:21.688Z,5.40
2018-07-24T14:29:50.343Z,5.95
2018-07-24T14:32:19.030Z,6.28
2018-07-24T14:34:47.702Z,5.42
2018-07-24T14:37:16.333Z,5.67
2018-07-24T14:39:44.958Z,5.42
2018-07-24T14:42:13.544Z,5.67
2018-07-24T14:44:42.361Z,5.62
2018-07-24T14:47:10.941Z,5.83
2018-07-24T14:49:39.574Z,5.53
2018-07-24T14:52:08.231Z,5.95
2018-07-24T14:54:36.897Z,5.83
2018-07-24T14:57:05.575Z,5.60
2018-07-24T14:59:34.400Z,5.50
2018-07-24T15:02:03.200Z,5.53
2018-07-24T15:04:32.290Z,5.72
2018-07-24T15:07:01.004Z,5.53
2018-07-24T15:09:29.935Z,5.53
2018-07-24T15:11:59.582Z,5.83
2018-07-24T15:14:28.293Z,5.70
2018-07-24T15:16:56.955Z,5.40
2018-07-24T15:19:25.603Z,5.40
2018-07-24T15:21:54.338Z,5.65
2018-07-24T15:24:22.983Z,5.33
2018-07-24T15:26:51.630Z,5.85
2018-07-24T15:29:20.677Z,5.60
2018-07-24T15:31:49.388Z,5.60
2018-07-24T15:34:18.169Z,5.85
2018-07-24T15:36:46.672Z,5.50
2018-07-24T15:39:15.284Z,5.35
2018-07-24T15:41:44.524Z,4.97
2018-07-24T15:44:13.133Z,4.87
2018-07-24T15:46:41.765Z,5.10
2018-07-24T15:49:10.357Z,4.87
2018-07-24T15:51:38.991Z,4.62
2018-07-24T15:54:07.677Z,5.40
2018-07-24T15:56:36.273Z,5.62
2018-07-24T15:59:04.946Z,5.67
2018-07-24T16:01:33.573Z,5.28
2018-07-24T16:04:02.254Z,5.15
2018-07-24T16:06:30.851Z,4.97
2018-07-24T16:08:59.453Z,5.67
2018-07-24T16:11:28.105Z,4.87
2018-07-24T16:13:56.711Z,5.65
2018-07-24T16:16:25.363Z,5.42
2018-07-24T16:18:53.985Z,5.65
2018-07-24T16:21:22.628Z,5.00
2018-07-24T16:23:51.295Z,5.30
2018-07-24T16:26:26.416Z,6.00
2018-07-24T16:28:55.015Z,5.47
2018-07-24T16:31:23.665Z,5.47
2018-07-24T16:33:52.259Z,5.65
2018-07-24T16:36:20.886Z,5.33
2018-07-24T16:38:49.581Z,5.55
2018-07-24T16:41:18.185Z,5.53
2018-07-24T16:43:46.960Z,5.90
2018-07-24T16:46:15.550Z,6.03
2018-07-24T16:48:44.155Z,6.17
2018-07-24T16:51:12.779Z,5.80
2018-07-24T16:53:41.383Z,5.85
2018-07-24T16:56:09.971Z,5.60
2018-07-24T16:58:38.584Z,5.78
2018-07-24T17:01:07.227Z,6.03
2018-07-24T17:03:35.813Z,5.92
2018-07-24T17:06:04.441Z,6.00
2018-07-24T17:08:33.043Z,5.78
2018-07-24T17:11:01.648Z,5.72
2018-07-24T17:13:30.360Z,5.67
2018-07-24T17:15:58.967Z,6.75
2018-07-24T17:18:27.544Z,6.00
2018-07-24T17:20:56.175Z,5.97
2018-07-24T17:23:24.787Z,5.60
2018-07-24T17:25:53.389Z,5.83
2018-07-24T17:28:22.103Z,5.62
2018-07-24T17:30:51.026Z,5.60
2018-07-24T17:33:19.615Z,5.90
2018-07-24T17:35:48.307Z,6.10
2018-07-24T17:38:16.915Z,6.12
2018-07-24T17:40:45.530Z,5.78
2018-07-24T17:43:14.139Z,5.80
2018-07-24T17:45:42.769Z,6.05
2018-07-24T17:48:11.356Z,5.87
2018-07-24T17:50:39.910Z,6.15
2018-07-24T17:53:08.702Z,6.37
2018-07-24T17:55:37.332Z,5.83
2018-07-24T17:58:05.981Z,6.25
2018-07-24T18:00:34.582Z,6.78
2018-07-24T18:03:03.200Z,6.42
2018-07-24T18:05:31.937Z,6.22
2018-07-24T18:08:00.679Z,6.87
2018-07-24T18:10:29.890Z,6.50
2018-07-24T18:12:58.707Z,6.28
2018-07-24T18:15:27.400Z,6.03
2018-07-24T18:17:56.061Z,6.22
2018-07-24T18:20:24.767Z,6.00
2018-07-24T18:22:53.367Z,6.47
2018-07-24T18:25:21.999Z,7.33
2018-07-24T18:27:50.697Z,14.70
2018-07-24T18:30:19.363Z,27.00
2018-07-24T18:32:48.047Z,9.58
2018-07-24T18:35:16.660Z,7.20
2018-07-24T18:37:45.328Z,7.72
2018-07-24T18:40:13.967Z,6.50
2018-07-24T18:42:42.608Z,6.65
2018-07-24T18:45:11.264Z,6.67
2018-07-24T18:47:39.922Z,6.35
2018-07-24T18:50:08.576Z,6.78
2018-07-24T18:52:37.228Z,6.70
2018-07-24T18:55:05.912Z,7.08
2018-07-24T18:57:34.758Z,7.17
2018-07-24T19:00:03.566Z,6.92
2018-07-24T19:02:32.373Z,6.87
2018-07-24T19:05:01.177Z,6.42
2018-07-24T19:07:29.883Z,7.40
2018-07-24T19:09:58.733Z,7.40
2018-07-24T19:12:27.535Z,7.75
2018-07-24T19:14:56.250Z,6.67
2018-07-24T19:17:24.969Z,6.53
2018-07-24T19:19:53.816Z,6.60
2018-07-24T19:22:22.426Z,7.58
2018-07-24T19:24:51.039Z,7.10
2018-07-24T19:27:19.679Z,7.20
2018-07-24T19:29:48.355Z,7.87
2018-07-24T19:32:16.986Z,7.87
2018-07-24T19:34:45.755Z,7.53
2018-07-24T19:37:14.338Z,7.92
2018-07-24T19:39:43.020Z,7.55
2018-07-24T19:42:11.669Z,7.53
2018-07-24T19:44:40.329Z,7.33
2018-07-24T19:47:09.090Z,8.70
2018-07-24T19:49:37.828Z,7.55
2018-07-24T19:52:06.519Z,7.70
2018-07-24T19:54:35.154Z,11.93
2018-07-24T19:57:03.803Z,8.10
2018-07-24T19:59:32.486Z,7.47
2018-07-24T20:02:01.123Z,7.47
2018-07-24T20:04:29.829Z,6.87
2018-07-24T20:06:58.427Z,7.47
2018-07-24T20:09:27.071Z,10.82
2018-07-24T20:11:55.798Z,9.45
2018-07-24T20:14:24.463Z,8.58
2018-07-24T20:16:53.106Z,7.78
2018-07-24T20:19:21.772Z,7.72
2018-07-24T20:21:50.473Z,7.65
2018-07-24T20:24:19.097Z,7.28
2018-07-24T20:26:47.772Z,7.62
2018-07-24T20:29:16.385Z,7.08
2018-07-24T20:31:44.963Z,7.92
2018-07-24T20:34:13.571Z,7.80
2018-07-24T20:36:42.225Z,8.20
2018-07-24T20:39:12.399Z,7.50
2018-07-24T20:41:41.349Z,8.23
2018-07-24T20:44:10.279Z,7.70
2018-07-24T20:46:39.093Z,7.62
2018-07-24T20:49:07.777Z,8.50
2018-07-24T20:51:36.429Z,8.33
2018-07-24T20:54:05.193Z,8.00
2018-07-24T20:56:33.964Z,8.60
2018-07-24T20:59:02.539Z,8.50
2018-07-24T21:01:31.293Z,8.75
2018-07-24T21:04:00.015Z,11.78
2018-07-24T21:06:28.620Z,9.65
2018-07-24T21:08:57.208Z,9.28
2018-07-24T21:11:26.145Z,9.05
2018-07-24T21:13:54.810Z,8.75
2018-07-24T21:16:23.378Z,8.93
2018-07-24T21:18:52.038Z,9.50
2018-07-24T21:21:20.648Z,9.18
2018-07-24T21:23:49.227Z,9.45
2018-07-24T21:26:17.822Z,9.23
2018-07-24T21:28:46.378Z,9.85
2018-07-24T21:31:15.004Z,9.48
2018-07-24T21:33:43.627Z,9.33
2018-07-24T21:36:12.283Z,9.18
2018-07-24T21:38:40.959Z,9.53
2018-07-24T21:41:09.601Z,9.55
2018-07-24T21:43:38.177Z,9.98
2018-07-24T21:46:06.801Z,9.68
2018-07-24T21:48:35.451Z,9.90
2018-07-24T21:51:04.127Z,9.60
2018-07-24T21:53:34.641Z,9.75
2018-07-24T21:56:03.343Z,8.83
2018-07-24T21:58:32.085Z,9.85
2018-07-24T22:01:06.012Z,9.13
2018-07-24T22:03:34.647Z,8.10
2018-07-24T22:06:04.077Z,9.30
2018-07-24T22:08:32.739Z,9.18
2018-07-24T22:11:01.387Z,9.13
2018-07-24T22:13:29.975Z,8.58
2018-07-24T22:15:58.569Z,9.50
2018-07-24T22:18:27.179Z,9.03
2018-07-24T22:20:55.769Z,9.35
2018-07-24T22:23:24.363Z,8.90
2018-07-24T22:25:52.955Z,9.60
2018-07-24T22:28:21.537Z,9.05
2018-07-24T22:30:50.185Z,9.78
2018-07-24T22:33:18.768Z,8.85
2018-07-24T22:35:47.358Z,9.48
2018-07-24T22:38:15.982Z,9.43
2018-07-24T22:40:44.579Z,9.08
2018-07-24T22:43:13.171Z,9.05
2018-07-24T22:45:41.767Z,9.40
2018-07-24T22:48:10.392Z,9.65
2018-07-24T22:50:39.013Z,9.30
2018-07-24T22:53:07.603Z,9.95
2018-07-24T22:55:36.197Z,9.58
2018-07-24T22:58:04.789Z,9.20
2018-07-24T23:00:33.472Z,8.65
2018-07-24T23:03:02.067Z,8.53
2018-07-24T23:05:30.644Z,8.28
2018-07-24T23:07:59.291Z,7.87
2018-07-24T23:10:32.404Z,8.00
2018-07-24T23:13:02.307Z,8.10
2018-07-24T23:15:30.930Z,8.45
2018-07-24T23:17:59.589Z,7.58
2018-07-24T23:20:28.645Z,7.80
2018-07-24T23:22:57.350Z,7.78
2018-07-24T23:25:26.070Z,8.43
2018-07-24T23:27:54.922Z,7.70
2018-07-24T23:30:23.608Z,8.03
2018-07-24T23:32:52.258Z,8.45
2018-07-24T23:35:20.878Z,8.25
2018-07-24T23:37:49.517Z,8.38
2018-07-24T23:40:18.177Z,8.13
2018-07-24T23:42:46.778Z,8.38
2018-07-24T23:45:15.380Z,8.20
2018-07-24T23:47:44.016Z,7.92
2018-07-24T23:50:12.663Z,8.23
2018-07-24T23:52:41.438Z,8.18
2018-07-24T23:55:10.063Z,8.55
2018-07-24T23:57:38.666Z,7.60
